KVAD

Moody AFB Airport

Valdosta, Georgia, USA
TAF AMD KVAD 182115Z 1821/1923 21009KT 9999 FEW030 BKN050 QNH3003INS BECMG 1902/1903 18006KT 8000 BR BKN020 QNH3008INS BECMG 1905/1906 18006KT 6000 BR OVC010 QNH3001INS BECMG 1912/1913 16009KT 9999 NSW SCT030 BKN150 510103 QNH2990INS BECMG 1917/1918 18012G18KT 9999 BKN080 510103 QNH2982INS TX22/1821Z TN13/1911Z LAST NO AMDS AFT 1822 NEXT 2209
Issued Valid From Valid To
Jan-18 @ 21:15 UTC
(5 hours ago)
Jan-18 @ 21:00 UTC
(5 hours ago)
Jan-19 @ 23:00 UTC
(in 21 hours)
Expired Click to View Jan-18 @ 21:00 to Jan-19 @ 02:00
TAF AMD KVAD 182115Z 1821/1923 21009KT 9999 FEW030 BKN050 QNH3003INS
Wind Visibility Clouds Readings
210° at 9 knots Greater than 6 miles
  • Few at 3,000' AGL
  • Broken at 5,000' AGL
Altimeter 30.03" Hg
Pressure 1016.92 hPa
Becoming Jan-19 @ 02:00 to Jan-19 @ 05:00
BECMG 1902/1903 18006KT 8000 BR BKN020 QNH3008INS
Wind Visibility Clouds Conditions Readings
180° at 6 knots 497 miles
  • Broken at 2,000' AGL
  • Mist
Altimeter 30.09" Hg
Pressure 1018.92 hPa
Becoming Jan-19 @ 05:00 to Jan-19 @ 12:00
BECMG 1905/1906 18006KT 6000 BR OVC010 QNH3001INS
Wind Visibility Clouds Conditions Readings
180° at 6 knots 373 miles
  • Overcast at 1,000' AGL
  • Mist
Altimeter 30" Hg
Pressure 1015.92 hPa
Becoming Jan-19 @ 12:00 to Jan-19 @ 17:00
BECMG 1912/1913 16009KT 9999 NSW SCT030 BKN150 510103 QNH2990INS
Wind Visibility Clouds Conditions Readings Turbulence
160° at 9 knots Greater than 6 miles
  • Scattered at 3,000' AGL
  • Broken at 15,000' AGL
Altimeter 29.91" Hg
Pressure 1012.92 hPa
Light turbulence expected at 1,000' AGL extending to 4,000' AGL
Becoming Jan-19 @ 17:00 to Jan-19 @ 23:00
BECMG 1917/1918 18012G18KT 9999 BKN080 510103 QNH2982INS TX22/1821Z TN13/1911Z LAST NO AMDS AFT 1822 NEXT 2209
Wind Visibility Clouds Conditions Readings Turbulence
180° at 12 knots
 Gusting to 18 knots
Greater than 6 miles
  • Broken at 8,000' AGL
Altimeter 29.82" Hg
Pressure 1009.92 hPa
Light turbulence expected at 1,000' AGL extending to 4,000' AGL
TAF AMD KVAD 182115Z 1821/1923 21009KT 9999 FEW030 BKN050 QNH3003INS BECMG 1902/1903 18006KT 8000 BR BKN020 QNH3008INS BECMG 1905/1906 18006KT 6000 BR OVC010 QNH3001INS BECMG 1912/1913 16009KT 9999 NSW SCT030 BKN150 510103 QNH2990INS BECMG 1917/1918 18012G18KT 9999 BKN080 510103 QNH2982INS TX22/1821Z TN13/1911Z LAST NO AMDS AFT 1822 NEXT 2209
Issued Jan-18 @ 21:15 UTC
(5 hours ago)
Valid From Jan-18 @ 21:00 UTC
(5 hours ago)
Valid To Jan-19 @ 23:00 UTC
(in 21 hours)
Jan-18 @ 21:00 - Jan-19 @ 02:00
Wind Visibility
210° at 9 knots Greater than 6 miles
Clouds
  • Few at 3,000' AGL
  • Broken at 5,000' AGL
Becoming Jan-19 @ 02:00 - Jan-19 @ 05:00
Wind Visibility
180° at 6 knots 497 miles
Clouds
  • Broken at 2,000' AGL
Conditions
  • Mist
Becoming Jan-19 @ 05:00 - Jan-19 @ 12:00
Wind Visibility
180° at 6 knots 373 miles
Clouds
  • Overcast at 1,000' AGL
Conditions
  • Mist
Becoming Jan-19 @ 12:00 - Jan-19 @ 17:00
Wind Visibility
160° at 9 knots Greater than 6 miles
Clouds
  • Scattered at 3,000' AGL
  • Broken at 15,000' AGL
Conditions
Becoming Jan-19 @ 17:00 - Jan-19 @ 23:00
Wind Visibility
180° at 12 knots
 Gusting to 18 knots
Greater than 6 miles
Clouds
  • Broken at 8,000' AGL
Conditions